Rembert, South Carolina
Current Conditions -  °F | °C
As of 2:58 AM on Saturday 20 Dec 2014 (Local Time) from KSSC Reporting Station
Clear Clear  
Wind Chill:   Ceiling: Unl
Heat Index:   Visibility: 10mi
Dew Point:   Wind: 2mph
Humidity: 75%   Direction: 30°NNE
Pressure: 30.16"   Gusts: NA
Location:  34.1°N, 80.53°W
Report Text: KSSC 200758Z AUTO 03002KT 10SM CLR 07/03 A3016 RMK AO2 SLP215 T00730032 $
Loading
Personal Weather Stations






























Interactive Weather Map New forecast layout! Learn more

10-Day Weather Forecast

Advertisements
Track Severe Weather on mobile